Data for 07/30/2017

Time Sea-Level Adjusted Pressure Absolute Pressure Temperature Relative Humidity Dew Point   
(mb) (inHg) (mb) (inHg) (C) (F) (%) (C) (F)
00:05 1024 30.24 853 25.19 20 68 32 2.9 37.3
00:10 1024 30.24 853 25.19 20.2 68.4 32 3 37.4
00:15 1024 30.24 853 25.19 20.6 69 31 3 37.4
00:20 1024 30.24 853 25.19 20.4 68.8 32 3.3 38
00:25 1024 30.24 853 25.19 20 68 32 3.2 37.7
00:30 1024 30.24 853 25.19 19.9 67.7 32 3.1 37.5
00:35 1024 30.24 853 25.19 20 67.9 32 3.1 37.6
00:40 1024 30.24 853 25.19 20 67.9 32 3 37.4
00:45 1024 30.24 853 25.19 19.9 67.7 33 3.1 37.6
00:50 1024 30.24 853 25.19 19.8 67.7 33 3.3 37.9
00:55 1024 30.24 853 25.19 19.8 67.6 34 3.4 38.1
01:00 1024 30.24 853 25.19 19.7 67.4 33 3.3 38
01:05 1024 30.24 853 25.19 19.5 67.1 34 3.3 38
01:10 1024 30.24 853 25.19 19.4 66.8 35 3.5 38.4
01:15 1024 30.24 853 25.19 19.2 66.5 35 3.3 38
01:20 1024 30.24 853 25.19 19 66.2 36 3.6 38.6
01:25 1024 30.24 853 25.19 18.8 65.8 36 3.6 38.5
01:30 1024 30.24 853 25.19 18.7 65.7 36 3.7 38.6
01:35 1024 30.24 853 25.19 18.9 65.9 36 3.5 38.4
01:40 1024 30.24 854 25.22 19 66.3 35 3.5 38.2
01:45 1024 30.24 854 25.22 19.2 66.6 35 3.4 38.1
01:50 1024 30.24 854 25.22 19.2 66.5 35 3.5 38.2
01:55 1024 30.24 854 25.22 18.9 65.9 36 3.5 38.3
02:00 1024 30.24 854 25.22 18.6 65.4 36 3.3 37.9
02:05 1024 30.24 854 25.22 18.5 65.3 36 3.4 38.1
02:10 1024 30.24 854 25.22 18.7 65.6 35 3.1 37.6
02:15 1024 30.24 854 25.22 18.9 66 33 2.6 36.7
02:20 1024 30.24 854 25.22 19.1 66.3 33 2.5 36.5
02:25 1025 30.27 854 25.22 18.8 65.9 34 2.9 37.2
02:30 1025 30.27 854 25.22 18.5 65.2 34 2.5 36.4
02:35 1025 30.27 854 25.22 18.3 64.9 35 2.8 37
02:40 1025 30.27 854 25.22 18 64.5 36 2.9 37.3
02:45 1025 30.27 854 25.22 17.8 64.1 37 3.1 37.5
02:50 1025 30.27 854 25.22 17.6 63.7 38 3.2 37.7
02:55 1025 30.27 854 25.22 17.4 63.3 38 3 37.3
03:00 1025 30.27 854 25.22 17.5 63.6 38 3.1 37.6
03:05 1025 30.27 854 25.22 17.8 64 37 3.1 37.6
03:10 1025 30.27 854 25.22 17.8 64.1 37 3.1 37.6
03:15 1025 30.27 854 25.22 17.7 63.9 37 3.1 37.6
03:20 1025 30.27 854 25.22 18 64.3 37 3.3 38
03:25 1025 30.27 854 25.22 17.6 63.6 38 3.3 38
03:30 1025 30.27 854 25.22 17.6 63.7 37 2.9 37.2
03:35 1025 30.27 854 25.22 17.9 64.2 38 3.5 38.3
03:40 1025 30.27 854 25.22 17.5 63.6 40 3.9 39.1
03:45 1025 30.27 854 25.22 17.3 63.1 40 3.7 38.7
03:50 1025 30.27 854 25.22 17.2 63 40 3.6 38.5
03:55 1025 30.27 854 25.22 17.3 63.2 40 3.6 38.5
04:00 1025 30.27 854 25.22 17.4 63.3 40 3.9 39
04:05 1025 30.27 854 25.22 17.3 63.2 41 4.1 39.3
04:10 1025 30.27 854 25.22 17.4 63.4 41 4 39.2
04:15 1025 30.27 854 25.22 17.4 63.4 41 4.1 39.4
04:20 1025 30.27 854 25.22 17.1 62.7 42 4.2 39.5
04:25 1025 30.27 854 25.22 16.6 61.9 42 3.9 39
04:30 1025 30.27 854 25.22 16.6 61.9 41 3.4 38.2
04:35 1025 30.27 854 25.22 16.9 62.4 37 2.3 36.2
04:40 1025 30.27 854 25.22 17.4 63.3 37 2.8 37.1
04:45 1025 30.27 854 25.22 17.3 63.1 38 3 37.5
04:50 1025 30.27 854 25.22 17 62.6 38 2.9 37.2
04:55 1025 30.27 854 25.22 16.8 62.2 40 3.2 37.7
05:00 1025 30.27 854 25.22 16.5 61.7 41 3.2 37.8
05:05 1025 30.27 854 25.22 16.6 61.9 40 2.9 37.2
05:10 1025 30.27 854 25.22 16.6 61.9 40 3.1 37.6
05:15 1025 30.27 854 25.22 16.2 61.2 41 3.1 37.5
05:20 1025 30.27 854 25.22 16.3 61.4 40 2.7 36.9
05:25 1025 30.27 854 25.22 16.4 61.6 41 3.2 37.8
05:30 1025 30.27 854 25.22 16.3 61.3 43 3.7 38.6
05:35 1025 30.27 854 25.22 16.1 60.9 45 4.2 39.5
05:40 1025 30.27 854 25.22 16.1 60.9 45 4.2 39.5
05:45 1025 30.27 854 25.22 16.2 61.1 43 3.8 38.8
05:50 1025 30.27 854 25.22 16 60.8 45 4.2 39.6
05:55 1025 30.27 854 25.22 15.6 60.1 46 4.2 39.6
06:00 1025 30.27 854 25.22 15.4 59.8 46 4.1 39.3
06:05 1025 30.27 854 25.22 15.3 59.5 46 3.9 39
06:10 1025 30.27 854 25.22 15.4 59.7 44 3.4 38.1
06:15 1025 30.27 854 25.22 15.8 60.4 42 3.1 37.6
06:20 1025 30.27 854 25.22 16 60.8 43 3.5 38.2
06:25 1025 30.27 854 25.22 16.1 61.1 43 3.5 38.4
06:30 1025 30.27 854 25.22 16.2 61.1 43 3.7 38.7
06:35 1025 30.27 854 25.22 15.9 60.7 44 3.9 39
06:40 1025 30.27 854 25.22 15.9 60.6 45 3.9 39.1
06:45 1025 30.27 855 25.25 15.8 60.5 45 4 39.3
06:50 1025 30.27 855 25.25 15.9 60.7 45 4 39.2
06:55 1025 30.27 855 25.25 16.1 61.1 44 4.1 39.4
07:00 1025 30.27 855 25.25 16.4 61.6 44 4.2 39.5
07:05 1025 30.27 855 25.25 16.5 61.7 45 4.6 40.3
07:10 1025 30.27 855 25.25 16.5 61.7 45 4.6 40.3
07:15 1026 30.3 855 25.25 16.7 62.1 45 4.8 40.6
07:20 1026 30.3 855 25.25 17 62.5 44 4.6 40.3
07:25 1026 30.3 855 25.25 17.4 63.2 43 4.8 40.6
07:30 1026 30.3 855 25.25 17.6 63.8 43 5 41
07:35 1026 30.3 855 25.25 17.8 64 42 4.9 40.8
07:40 1026 30.3 855 25.25 18.1 64.5 41 4.8 40.7
07:45 1026 30.3 855 25.25 18.3 64.9 41 5 41
07:50 1026 30.3 855 25.25 18.6 65.6 40 5.1 41.1
07:55 1026 30.3 855 25.25 19.2 66.6 39 5.2 41.4
08:00 1026 30.3 855 25.25 19.3 66.8 40 5.4 41.8
08:05 1026 30.3 855 25.25 19.3 66.7 38 4.8 40.6
08:10 1026 30.3 855 25.25 19.3 66.8 40 5.5 41.9
08:15 1026 30.3 855 25.25 19.5 67.1 40 5.9 42.6
08:20 1026 30.3 855 25.25 19.8 67.6 40 5.8 42.5
08:25 1026 30.3 855 25.25 20 67.9 39 5.7 42.3
08:30 1026 30.3 855 25.25 20.2 68.3 39 6 42.7
08:35 1026 30.3 855 25.25 20.7 69.2 38 6.1 42.9
08:40 1026 30.3 855 25.25 20.9 69.6 37 5.7 42.3
08:45 1026 30.3 855 25.25 21.1 69.9 38 6.5 43.7
08:50 1026 30.3 855 25.25 21.4 70.6 37 6.2 43.2
08:55 1026 30.3 855 25.25 21.8 71.2 37 6.6 44
09:00 1026 30.3 855 25.25 22.1 71.7 35 6.2 43.2
09:05 1026 30.3 855 25.25 22.3 72.2 34 5.8 42.5
09:10 1026 30.3 855 25.25 23 73.3 31 5.3 41.5
09:15 1026 30.3 855 25.25 23.7 74.7 31 5.9 42.6
09:20 1026 30.3 855 25.25 23.8 74.8 31 5.8 42.5
09:25 1026 30.3 855 25.25 24.3 75.8 30 5.9 42.6
09:30 1026 30.3 855 25.25 25.1 77.1 28 5.7 42.2
09:35 1026 30.3 855 25.25 25.1 77.1 29 5.8 42.5
09:40 1026 30.3 855 25.25 25.6 78.1 27 5.7 42.3
09:45 1026 30.3 855 25.25 25.8 78.4 28 6 42.8
09:50 1026 30.3 855 25.25 25.5 77.9 28 5.8 42.4
09:55 1026 30.3 855 25.25 25.9 78.7 28 6.1 43
10:00 1026 30.3 855 25.25 26 78.7 27 6 42.7
10:05 1026 30.3 855 25.25 26.1 78.9 27 5.8 42.5
10:10 1026 30.3 855 25.25 26.1 79.1 27 5.9 42.6
10:15 1026 30.3 855 25.25 26.6 79.8 28 6.6 43.9
10:20 1026 30.3 855 25.25 26.4 79.5 27 6.1 43.1
10:25 1026 30.3 855 25.25 26.6 79.9 28 6.7 44.1
10:30 1026 30.3 855 25.25 26.7 80 28 6.8 44.3
10:35 1026 30.3 855 25.25 25.7 78.3 29 6.7 44.1
10:40 1026 30.3 855 25.25 26.3 79.3 28 6.7 44
10:45 1026 30.3 855 25.25 26.8 80.2 27 6.3 43.4
10:50 1026 30.3 855 25.25 26.4 79.5 29 7 44.6
10:55 1026 30.3 855 25.25 26 78.9 28 6.5 43.7
11:00 1026 30.3 855 25.25 26.3 79.3 27 6.2 43.2
11:05 1026 30.3 855 25.25 26.9 80.4 27 6.4 43.5
11:10 1026 30.3 855 25.25 27.6 81.6 26 6.9 44.3
11:15 1026 30.3 855 25.25 28 82.4 25 6.7 44
11:20 1026 30.3 855 25.25 28.2 82.8 25 6.7 44
11:25 1026 30.3 855 25.25 28.6 83.5 24 6.4 43.5
11:30 1026 30.3 855 25.25 29 84.1 23 6.2 43.1
11:35 1026 30.3 855 25.25 29.1 84.4 22 5.8 42.4
11:40 1026 30.3 855 25.25 28.7 83.7 23 6.1 43.1
11:45 1026 30.3 855 25.25 28.3 82.9 23 5.4 41.8
11:50 1025 30.27 855 25.25 28.4 83 24 6 42.8
11:55 1025 30.27 855 25.25 28.4 83.1 23 5.6 42.1
12:00 1025 30.27 855 25.25 28.9 84.1 23 5.8 42.5
12:05 1025 30.27 855 25.25 30.2 86.3 19 4 39.2
12:10 1025 30.27 855 25.25 30.6 87.1 18 4 39.2
12:15 1025 30.27 855 25.25 30.9 87.7 18 4.4 39.9
12:20 1025 30.27 854 25.22 31 87.8 18 4.1 39.4
12:25 1025 30.27 854 25.22 31 87.8 18 4.1 39.4
12:30 1025 30.27 854 25.22 30.9 87.7 18 4.3 39.8
12:35 1025 30.27 854 25.22 30.7 87.3 21 6.4 43.6
12:40 1025 30.27 854 25.22 30.9 87.5 18 3.8 38.9
12:45 1025 30.27 854 25.22 31.5 88.7 17 3.7 38.7
12:50 1025 30.27 854 25.22 30.5 87 18 4.2 39.6
12:55 1025 30.27 854 25.22 30.6 87 15 1.8 35.2
13:00 1025 30.27 854 25.22 30.2 86.4 16 1.9 35.5
13:05 1025 30.27 854 25.22 30.5 86.9 15 1.2 34.1
13:10 1025 30.27 854 25.22 31.7 89.1 16 2.9 37.2
13:15 1025 30.27 854 25.22 32.2 90 13 1.1 33.9
13:20 1025 30.27 854 25.22 32.9 91.3 14 2.3 36.1
13:25 1025 30.27 854 25.22 33.1 91.5 14 2 35.5
13:30 1025 30.27 854 25.22 33.1 91.6 13 1.8 35.3
13:35 1025 30.27 854 25.22 33.2 91.8 14 2.1 35.8
13:40 1025 30.27 854 25.22 33.3 91.9 13 1.5 34.8
13:45 1025 30.27 854 25.22 33.1 91.7 12 0.9 33.6
13:50 1025 30.27 854 25.22 33.3 92 14 2.3 36.2
13:55 1025 30.27 854 25.22 33.3 91.9 11 -0.8 30.5
14:00 1025 30.27 854 25.22 33.7 92.7 12 0.8 33.5
14:05 1025 30.27 854 25.22 33.9 93 11 -0.8 30.6
14:10 1024 30.24 854 25.22 33.7 92.7 12 0.7 33.3
14:15 1024 30.24 854 25.22 33.7 92.6 12 0.2 32.4
14:20 1024 30.24 854 25.22 33.4 92 11 -0.3 31.5
14:25 1024 30.24 854 25.22 33.1 91.6 12 -0.3 31.5
14:30 1024 30.24 854 25.22 33.1 91.7 12 0.6 33.1
14:35 1024 30.24 854 25.22 33.4 92.1 11 -0.7 30.7
14:40 1024 30.24 854 25.22 32.5 90.6 12 0.3 32.6
14:45 1024 30.24 854 25.22 31.7 89.1 12 -1.3 29.6
14:50 1024 30.24 854 25.22 31.5 88.6 12 -1.1 29.9
14:55 1024 30.24 853 25.19 32.3 90.1 11 -1.5 29.4
15:00 1024 30.24 853 25.19 32.6 90.7 11 -1.8 28.7
15:05 1024 30.24 853 25.19 32.6 90.7 10 -2.6 27.3
15:10 1024 30.24 853 25.19 32.2 90 12 -0.9 30.4
15:15 1024 30.24 853 25.19 32.4 90.2 11 -1 30.2
15:20 1024 30.24 853 25.19 33 91.4 12 -0.1 31.9
15:25 1024 30.24 853 25.19 32.8 91 11 -0.6 30.9
15:30 1024 30.24 853 25.19 32.1 89.8 12 -0.8 30.6
15:35 1024 30.24 853 25.19 32.1 89.7 12 -0.6 30.9
15:40 1024 30.24 853 25.19 32.9 91.3 11 -1 30.2
15:45 1024 30.24 853 25.19 32.6 90.6 11 -1 30.2
15:50 1024 30.24 853 25.19 32.6 90.7 11 -0.7 30.7
15:55 1024 30.24 853 25.19 31.9 89.5 12 -1.2 29.9
16:00 1024 30.24 853 25.19 32.6 90.6 11 -1.7 28.9
16:05 1024 30.24 853 25.19 32.6 90.7 11 -1.5 29.3
16:10 1024 30.24 853 25.19 33 91.4 11 -1.3 29.7
16:15 1024 30.24 853 25.19 33 91.4 11 -0.8 30.6
16:20 1024 30.24 853 25.19 33 91.4 11 -0.6 31
16:25 1024 30.24 853 25.19 32.8 91 12 -0.4 31.3
16:30 1024 30.24 853 25.19 32.7 90.9 11 -1.2 29.8
16:35 1024 30.24 853 25.19 33.4 92 11 -0.2 31.6
16:40 1024 30.24 853 25.19 33.5 92.3 11 -1 30.2
16:45 1024 30.24 853 25.19 34 93.1 11 -0.6 30.9
16:50 1023 30.21 853 25.19 34.1 93.3 10 -1.2 29.8
16:55 1023 30.21 853 25.19 33 91.4 11 -0.6 30.8
17:00 1023 30.21 853 25.19 32.2 89.9 13 0.5 33
17:05 1023 30.21 853 25.19 32.8 91 12 0.3 32.5
17:10 1023 30.21 853 25.19 33.7 92.6 11 -0 32
17:15 1023 30.21 853 25.19 33.8 92.8 11 -0.1 31.9
17:20 1023 30.21 852 25.16 33.8 92.9 13 1.5 34.7
17:25 1023 30.21 853 25.19 33.7 92.6 11 0.1 32.2
17:30 1023 30.21 853 25.19 33.7 92.7 11 -0.9 30.4
17:35 1023 30.21 853 25.19 33.2 91.8 11 -0.4 31.2
17:40 1023 30.21 852 25.16 32.4 90.2 12 -0.4 31.3
17:45 1023 30.21 852 25.16 32.8 91 11 -1.1 30.1
17:50 1023 30.21 852 25.16 33.2 91.8 11 -1.1 30
17:55 1023 30.21 852 25.16 32.7 90.9 11 -0.6 30.9
18:00 1023 30.21 852 25.16 33.4 92 11 -1 30.2
18:05 1023 30.21 852 25.16 32.8 91.1 12 -0.4 31.2
18:10 1023 30.21 852 25.16 32.7 90.8 12 -0.3 31.5
18:15 1023 30.21 852 25.16 32.5 90.6 11 -1.4 29.6
18:20 1023 30.21 852 25.16 32 89.6 12 -0.9 30.4
18:25 1023 30.21 852 25.16 32.5 90.5 11 -1.5 29.3
18:30 1023 30.21 852 25.16 32.9 91.3 11 -0.6 30.9
18:35 1023 30.21 852 25.16 32.1 89.8 12 -0.6 31
18:40 1023 30.21 852 25.16 32.2 89.9 12 -0.6 30.9
18:45 1023 30.21 852 25.16 32.4 90.4 12 -0.5 31
18:50 1023 30.21 852 25.16 32.2 90 13 0.7 33.2
18:55 1023 30.21 852 25.16 31.8 89.3 13 0.6 33
19:00 1023 30.21 852 25.16 31.5 88.7 13 -0.1 31.9
19:05 1023 30.21 853 25.19 31.2 88.1 14 0.6 33.1
19:10 1023 30.21 853 25.19 30.9 87.6 14 1 33.8
19:15 1023 30.21 853 25.19 30.6 87.1 16 2.2 35.9
19:20 1023 30.21 853 25.19 30.3 86.6 15 1.2 34.2
19:25 1023 30.21 853 25.19 30.1 86.1 15 0.8 33.4
19:30 1024 30.24 853 25.19 29.9 85.8 15 0.9 33.7
19:35 1024 30.24 853 25.19 29.8 85.6 15 1 33.8
19:40 1024 30.24 853 25.19 29.7 85.4 15 0.6 33.1
19:45 1024 30.24 853 25.19 29.3 84.7 20 4 39.2
19:50 1024 30.24 853 25.19 28.1 82.5 21 4.2 39.6
19:55 1024 30.24 853 25.19 27.5 81.5 21 3.7 38.7
20:00 1024 30.24 853 25.19 27.3 81.1 22 3.9 39
20:05 1024 30.24 853 25.19 26.9 80.3 23 4.5 40.2
20:10 1024 30.24 853 25.19 26.5 79.8 26 5.5 41.9
20:15 1024 30.24 853 25.19 26.4 79.5 23 4 39.1
20:20 1024 30.24 853 25.19 26.6 79.8 23 4.2 39.6
20:25 1024 30.24 853 25.19 26.7 80 23 4 39.3
20:30 1024 30.24 853 25.19 26.8 80.2 21 2.7 36.9
20:35 1024 30.24 853 25.19 26.6 79.9 24 4.5 40.1
20:40 1024 30.24 853 25.19 25.9 78.7 24 3.8 38.9
20:45 1024 30.24 853 25.19 25.8 78.4 24 3.9 39
20:50 1024 30.24 853 25.19 25.9 78.5 23 3.7 38.6
20:55 1024 30.24 853 25.19 26 78.8 23 3.8 38.9
21:00 1024 30.24 853 25.19 26.2 79.2 21 2.5 36.5
21:05 1024 30.24 853 25.19 26.5 79.7 22 3.2 37.8
21:10 1024 30.24 853 25.19 26.7 80.1 20 2.2 36
21:15 1024 30.24 853 25.19 26.7 80.1 19 1.7 35.1
21:20 1024 30.24 853 25.19 26.5 79.7 20 2.2 35.9
21:25 1024 30.24 853 25.19 26.2 79.2 25 5.1 41.1
21:30 1024 30.24 854 25.22 25.7 78.3 25 4.3 39.8
21:35 1024 30.24 854 25.22 25.4 77.8 23 2.9 37.2
21:40 1025 30.27 854 25.22 25.2 77.3 24 3.2 37.8
21:45 1025 30.27 854 25.22 24.7 76.5 22 1.9 35.4
21:50 1025 30.27 854 25.22 25 77 21 1.5 34.7
21:55 1025 30.27 854 25.22 25.4 77.8 20 1.3 34.3
22:00 1025 30.27 854 25.22 25.5 77.9 24 3.5 38.4
22:05 1025 30.27 854 25.22 24.9 76.8 22 2.2 36
22:10 1025 30.27 854 25.22 24.6 76.3 26 3.8 38.9
22:15 1025 30.27 855 25.25 24 75.1 26 3.3 37.9
22:20 1025 30.27 855 25.25 23.9 75.1 24 2.2 35.9
22:25 1025 30.27 855 25.25 24.5 76 24 2.8 37
22:30 1025 30.27 855 25.25 24.7 76.5 23 2.3 36.2
22:35 1025 30.27 855 25.25 24.5 76.2 23 2.4 36.3
22:40 1025 30.27 855 25.25 24.3 75.8 27 4.1 39.4
22:45 1025 30.27 855 25.25 24.5 76.1 22 1.8 35.2
22:50 1025 30.27 855 25.25 24.8 76.6 23 2.4 36.3
22:55 1025 30.27 855 25.25 24.6 76.3 27 4.4 40
23:00 1025 30.27 855 25.25 24.8 76.7 22 1.7 35.1
23:05 1025 30.27 855 25.25 25.1 77.2 22 2.2 36
23:10 1025 30.27 855 25.25 25.2 77.3 23 2.6 36.8
23:15 1025 30.27 855 25.25 24 75.2 28 4.5 40.1
23:20 1025 30.27 855 25.25 22.7 72.8 28 3.6 38.5
23:25 1025 30.27 855 25.25 22.6 72.7 27 2.8 37
23:30 1025 30.27 855 25.25 22.6 72.7 28 3.3 37.9
23:35 1025 30.27 855 25.25 22.2 72 28 3.1 37.5
23:40 1025 30.27 855 25.25 22.3 72.1 28 3.1 37.7
23:45 1025 30.27 855 25.25 22.3 72.2 31 4.4 40
23:50 1025 30.27 855 25.25 22 71.5 29 3.5 38.3
23:55 1026 30.3 855 25.25 21.5 70.6 30 3.4 38.1
24:00 1025 30.27 855 25.25 21.2 70.2 31 3.4 38.2